Terminal Aerodrome Forecast
Issued by NWS

Home | Current Version | Previous Version | Text Only | Print | Product List | Glossary On
Versions: 1 2 3 4 5 6 7 8 9 10 11 12 13 14 15 16 17 18 19 20 21 22 23 24 25 26 27 28 29 30 31 32 33
000
FTUS43 KDTX 041123
TAFPTK
TAF
KPTK 041123Z 0412/0512 24004KT P6SM SCT028 OVC035
     FM041400 15005KT P6SM BKN040 OVC080
     FM041900 14008KT P6SM BKN045 BKN060 OVC080
     FM042300 14005KT 1 1/2SM -SN BR BKN006 OVC022
     FM050600 24005KT 4SM BR BKN008 OVC028
     FM051000 26007KT P6SM OVC012=

USA.gov is the U.S. government's official web portal to all federal, state and local government web resources and services.